createdAt,value
2019-03-25T00:01:03.647Z,18.00
2019-03-25T00:03:30.059Z,18.00
2019-03-25T00:05:56.709Z,18.00
2019-03-25T00:08:23.315Z,18.00
2019-03-25T00:10:49.559Z,17.90
2019-03-25T00:13:15.981Z,17.80
2019-03-25T00:15:42.211Z,17.90
2019-03-25T00:18:08.442Z,17.80
2019-03-25T00:20:34.732Z,17.80
2019-03-25T00:23:01.332Z,17.80
2019-03-25T00:25:27.704Z,17.80
2019-03-25T00:27:53.977Z,17.80
2019-03-25T00:30:20.396Z,17.80
2019-03-25T00:32:46.613Z,17.70
2019-03-25T00:35:12.856Z,17.60
2019-03-25T00:37:39.055Z,17.60
2019-03-25T00:40:05.292Z,17.60
2019-03-25T00:42:31.550Z,17.60
2019-03-25T00:44:57.982Z,17.50
2019-03-25T00:47:24.202Z,17.60
2019-03-25T00:49:50.627Z,17.50
2019-03-25T00:52:17.097Z,17.50
2019-03-25T00:54:49.879Z,17.60
2019-03-25T00:57:09.915Z,17.60
2019-03-25T00:59:36.166Z,17.60
2019-03-25T01:02:03.241Z,17.60
2019-03-25T01:04:29.650Z,17.60
2019-03-25T01:06:55.864Z,17.60
2019-03-25T01:09:22.095Z,17.60
2019-03-25T01:11:49.558Z,17.50
2019-03-25T01:14:16.391Z,17.40
2019-03-25T01:16:43.448Z,17.40
2019-03-25T01:19:10.294Z,17.40
2019-03-25T01:21:36.760Z,17.40
2019-03-25T01:24:03.191Z,17.30
2019-03-25T01:26:29.629Z,17.30
2019-03-25T01:28:56.002Z,17.30
2019-03-25T01:31:22.694Z,17.30
2019-03-25T01:33:49.140Z,17.30
2019-03-25T01:36:15.535Z,17.30
2019-03-25T01:38:41.995Z,17.30
2019-03-25T01:41:08.630Z,17.20
2019-03-25T01:43:35.269Z,17.20
2019-03-25T01:46:01.907Z,17.20
2019-03-25T01:48:28.323Z,17.20
2019-03-25T01:50:54.732Z,17.10
2019-03-25T01:53:20.979Z,17.10
2019-03-25T01:55:47.443Z,17.10
2019-03-25T01:58:13.863Z,17.10
2019-03-25T02:00:40.278Z,17.10
2019-03-25T02:03:06.487Z,17.10
2019-03-25T02:05:32.714Z,17.10
2019-03-25T02:07:58.987Z,17.10
2019-03-25T02:10:25.422Z,17.10
2019-03-25T02:12:51.632Z,17.00
2019-03-25T02:15:18.046Z,17.00
2019-03-25T02:17:44.718Z,17.10
2019-03-25T02:20:11.128Z,17.00
2019-03-25T02:22:37.426Z,17.00
2019-03-25T02:25:03.809Z,17.00
2019-03-25T02:27:30.249Z,17.00
2019-03-25T02:29:56.644Z,17.00
2019-03-25T02:32:22.870Z,17.00
2019-03-25T02:34:49.122Z,16.90
2019-03-25T02:37:15.519Z,16.90
2019-03-25T02:39:41.788Z,16.80
2019-03-25T02:42:08.274Z,16.80
2019-03-25T02:44:34.886Z,16.70
2019-03-25T02:47:01.119Z,16.70
2019-03-25T02:49:27.539Z,16.70
2019-03-25T02:51:53.958Z,16.70
2019-03-25T02:54:20.368Z,16.60
2019-03-25T02:56:46.865Z,16.50
2019-03-25T02:59:13.474Z,16.60
2019-03-25T03:01:39.903Z,16.60
2019-03-25T03:04:06.295Z,16.50
2019-03-25T03:06:32.549Z,16.50
2019-03-25T03:08:58.948Z,16.50
2019-03-25T03:11:25.231Z,16.50
2019-03-25T03:13:51.864Z,16.50
2019-03-25T03:16:18.262Z,16.50
2019-03-25T03:18:44.700Z,16.50
2019-03-25T03:21:11.162Z,16.50
2019-03-25T03:23:37.568Z,16.40
2019-03-25T03:26:05.428Z,16.40
2019-03-25T03:28:31.676Z,16.40
2019-03-25T03:30:58.098Z,16.40
2019-03-25T03:33:24.336Z,16.40
2019-03-25T03:35:51.540Z,16.40
2019-03-25T03:38:17.836Z,16.40
2019-03-25T03:40:44.221Z,16.20
2019-03-25T03:43:12.116Z,16.20
2019-03-25T03:45:38.442Z,16.20
2019-03-25T03:48:05.587Z,16.20
2019-03-25T03:50:33.469Z,16.10
2019-03-25T03:52:59.850Z,16.10
2019-03-25T03:55:26.096Z,16.20
2019-03-25T03:57:52.328Z,16.10
2019-03-25T04:00:18.545Z,16.10
2019-03-25T04:02:45.217Z,16.00
2019-03-25T04:05:11.442Z,16.00
2019-03-25T04:07:37.863Z,16.00
2019-03-25T04:10:04.064Z,16.00
2019-03-25T04:12:30.313Z,16.00
2019-03-25T04:14:56.561Z,15.90
2019-03-25T04:17:22.843Z,15.90
2019-03-25T04:19:49.216Z,15.90
2019-03-25T04:22:16.295Z,15.90
2019-03-25T04:24:43.491Z,15.90
2019-03-25T04:27:09.774Z,15.90
2019-03-25T04:29:36.161Z,16.00
2019-03-25T04:32:06.088Z,16.10
2019-03-25T04:34:29.657Z,16.10
2019-03-25T04:36:56.714Z,16.10
2019-03-25T04:39:23.745Z,16.10
2019-03-25T04:41:50.193Z,16.10
2019-03-25T04:44:16.408Z,16.10
2019-03-25T04:46:42.639Z,16.20
2019-03-25T04:49:09.107Z,16.20
2019-03-25T04:51:35.504Z,16.20
2019-03-25T04:54:01.925Z,16.30
2019-03-25T04:56:38.758Z,16.30
2019-03-25T04:58:57.676Z,16.30
2019-03-25T05:01:23.925Z,16.30
2019-03-25T05:03:50.340Z,16.40
2019-03-25T05:06:16.564Z,16.40
2019-03-25T05:08:42.824Z,16.40
2019-03-25T05:11:09.233Z,16.30
2019-03-25T05:13:35.451Z,16.30
2019-03-25T05:16:01.706Z,16.40
2019-03-25T05:18:28.135Z,16.40
2019-03-25T05:20:54.557Z,16.30
2019-03-25T05:23:20.814Z,16.30
2019-03-25T05:25:47.207Z,16.30
2019-03-25T05:28:13.469Z,16.30
2019-03-25T05:30:39.893Z,16.30
2019-03-25T05:33:06.295Z,16.40
2019-03-25T05:35:32.733Z,16.40
2019-03-25T05:37:58.953Z,16.40
2019-03-25T05:40:25.225Z,16.40
2019-03-25T05:42:51.619Z,16.40
2019-03-25T05:45:18.091Z,16.40
2019-03-25T05:47:44.504Z,16.40
2019-03-25T05:50:10.719Z,16.40
2019-03-25T05:52:37.160Z,16.40
2019-03-25T05:55:03.617Z,16.30
2019-03-25T05:57:30.015Z,16.40
2019-03-25T05:59:56.282Z,16.40
2019-03-25T06:02:22.683Z,16.40
2019-03-25T06:04:48.893Z,16.50
2019-03-25T06:07:15.116Z,16.50
2019-03-25T06:09:41.365Z,16.50
2019-03-25T06:12:07.605Z,16.50
2019-03-25T06:14:34.266Z,16.50
2019-03-25T06:17:00.691Z,16.50
2019-03-25T06:19:27.114Z,16.40
2019-03-25T06:21:53.532Z,16.40
2019-03-25T06:24:19.744Z,16.30
2019-03-25T06:26:45.981Z,16.30
2019-03-25T06:29:13.839Z,16.30
2019-03-25T06:31:40.087Z,16.30
2019-03-25T06:34:06.546Z,16.20
2019-03-25T06:36:33.218Z,16.20
2019-03-25T06:38:59.588Z,16.20
2019-03-25T06:41:25.827Z,16.10
2019-03-25T06:43:52.901Z,16.00
2019-03-25T06:46:19.339Z,16.00
2019-03-25T06:48:45.721Z,16.00
2019-03-25T06:51:11.993Z,16.00
2019-03-25T06:53:38.412Z,16.10
2019-03-25T06:56:04.821Z,16.00
2019-03-25T06:58:31.045Z,16.00
2019-03-25T07:00:57.284Z,16.00
2019-03-25T07:03:23.510Z,15.90
2019-03-25T07:05:49.704Z,16.00
2019-03-25T07:08:15.994Z,16.00
2019-03-25T07:10:42.407Z,16.00
2019-03-25T07:13:08.635Z,16.00
2019-03-25T07:15:34.848Z,16.10
2019-03-25T07:18:01.093Z,16.00
2019-03-25T07:20:27.556Z,16.00
2019-03-25T07:22:53.948Z,15.90
2019-03-25T07:25:20.210Z,15.90
2019-03-25T07:27:46.614Z,15.90
2019-03-25T07:30:12.835Z,15.80
2019-03-25T07:32:39.902Z,15.80
2019-03-25T07:35:06.317Z,15.70
2019-03-25T07:37:32.543Z,15.70
2019-03-25T07:39:58.811Z,15.70
2019-03-25T07:42:25.233Z,15.60
2019-03-25T07:44:51.651Z,15.60
2019-03-25T07:47:18.721Z,15.60
2019-03-25T07:49:45.164Z,15.60
2019-03-25T07:52:11.542Z,15.50
2019-03-25T07:54:37.881Z,15.50
2019-03-25T07:57:04.275Z,15.60
2019-03-25T07:59:30.639Z,15.50
2019-03-25T08:01:56.885Z,15.50
2019-03-25T08:04:23.093Z,15.50
2019-03-25T08:06:49.341Z,15.50
2019-03-25T08:09:15.538Z,15.50
2019-03-25T08:11:41.777Z,15.60
2019-03-25T08:14:08.009Z,15.60
2019-03-25T08:16:34.189Z,15.60
2019-03-25T08:19:00.389Z,15.50
2019-03-25T08:21:27.349Z,15.50
2019-03-25T08:23:53.548Z,15.40
2019-03-25T08:26:19.730Z,15.50
2019-03-25T08:28:45.926Z,15.50
2019-03-25T08:31:12.874Z,15.60
2019-03-25T08:33:39.086Z,15.60
2019-03-25T08:36:06.045Z,15.60
2019-03-25T08:38:33.162Z,15.60
2019-03-25T08:40:59.397Z,15.60
2019-03-25T08:43:25.572Z,15.60
2019-03-25T08:45:51.912Z,15.60
2019-03-25T08:48:18.144Z,15.70
2019-03-25T08:50:44.353Z,15.70
2019-03-25T08:53:10.539Z,15.70
2019-03-25T08:55:36.747Z,15.70
2019-03-25T08:58:11.447Z,15.80
2019-03-25T09:00:29.198Z,15.70
2019-03-25T09:02:55.489Z,15.70
2019-03-25T09:05:21.715Z,15.60
2019-03-25T09:07:48.159Z,15.50
2019-03-25T09:10:14.582Z,15.50
2019-03-25T09:12:40.800Z,15.50
2019-03-25T09:15:07.999Z,15.60
2019-03-25T09:17:34.270Z,15.70
2019-03-25T09:20:00.523Z,15.70
2019-03-25T09:22:26.748Z,15.70
2019-03-25T09:24:53.051Z,15.70
2019-03-25T09:27:19.232Z,15.70
2019-03-25T09:29:45.456Z,15.60
2019-03-25T09:32:11.672Z,15.60
2019-03-25T09:34:37.875Z,15.50
2019-03-25T09:37:04.130Z,15.50
2019-03-25T09:39:30.563Z,15.50
2019-03-25T09:41:56.763Z,15.50
2019-03-25T09:44:23.009Z,15.50
2019-03-25T09:46:49.243Z,15.50
2019-03-25T09:49:15.447Z,15.60
2019-03-25T09:51:41.694Z,15.60
2019-03-25T09:54:07.952Z,15.50
2019-03-25T09:56:34.149Z,15.60
2019-03-25T09:59:00.343Z,15.60
2019-03-25T10:01:26.600Z,15.50
2019-03-25T10:03:52.795Z,15.50
2019-03-25T10:06:20.520Z,15.50
2019-03-25T10:08:46.932Z,15.50
2019-03-25T10:11:13.364Z,15.50
2019-03-25T10:13:39.606Z,15.60
2019-03-25T10:16:05.862Z,15.60
2019-03-25T10:18:32.272Z,15.60
2019-03-25T10:20:58.516Z,15.60
2019-03-25T10:23:24.927Z,15.60
2019-03-25T10:25:51.161Z,15.60
2019-03-25T10:28:17.390Z,15.50
2019-03-25T10:30:43.616Z,15.50
2019-03-25T10:33:10.613Z,15.50
2019-03-25T10:35:36.826Z,15.50
2019-03-25T10:38:03.103Z,15.50
2019-03-25T10:40:29.323Z,15.50
2019-03-25T10:42:55.562Z,15.50
2019-03-25T10:45:21.822Z,15.50
2019-03-25T10:47:48.033Z,15.50
2019-03-25T10:50:14.228Z,15.50
2019-03-25T10:52:40.472Z,15.50
2019-03-25T10:55:07.868Z,15.50
2019-03-25T10:57:32.980Z,15.60
2019-03-25T10:59:59.240Z,15.70
2019-03-25T11:02:25.399Z,15.70
2019-03-25T11:04:51.628Z,15.70
2019-03-25T11:07:17.959Z,15.60
2019-03-25T11:09:44.085Z,15.60
2019-03-25T11:12:10.284Z,15.70
2019-03-25T11:14:36.531Z,15.70
2019-03-25T11:17:02.759Z,15.60
2019-03-25T11:19:28.942Z,15.50
2019-03-25T11:21:55.145Z,15.60
2019-03-25T11:24:21.402Z,15.60
2019-03-25T11:26:47.692Z,15.60
2019-03-25T11:29:13.895Z,15.70
2019-03-25T11:31:40.118Z,15.70
2019-03-25T11:34:06.304Z,15.80
2019-03-25T11:36:32.550Z,15.90
2019-03-25T11:38:58.767Z,15.90
2019-03-25T11:41:24.985Z,15.90
2019-03-25T11:43:51.203Z,16.00
2019-03-25T11:46:17.439Z,16.00
2019-03-25T11:48:43.632Z,16.00
2019-03-25T11:51:09.837Z,16.00
2019-03-25T11:53:36.999Z,16.10
2019-03-25T11:56:03.278Z,16.10
2019-03-25T11:58:29.491Z,16.10
2019-03-25T12:00:56.096Z,16.10
2019-03-25T12:03:22.533Z,16.10
2019-03-25T12:05:48.718Z,16.10
2019-03-25T12:08:16.627Z,15.90
2019-03-25T12:10:42.844Z,16.00
2019-03-25T12:13:09.284Z,16.00
2019-03-25T12:15:35.504Z,16.00
2019-03-25T12:18:01.724Z,16.10
2019-03-25T12:20:27.936Z,16.00
2019-03-25T12:22:55.670Z,15.80
2019-03-25T12:25:21.879Z,15.70
2019-03-25T12:27:48.298Z,15.80
2019-03-25T12:30:14.526Z,15.80
2019-03-25T12:32:40.745Z,15.80
2019-03-25T12:35:07.747Z,15.80
2019-03-25T12:37:35.541Z,15.70
2019-03-25T12:40:02.506Z,15.80
2019-03-25T12:42:28.718Z,15.80
2019-03-25T12:44:54.916Z,15.80
2019-03-25T12:47:21.160Z,15.70
2019-03-25T12:49:47.381Z,15.70
2019-03-25T12:52:14.036Z,15.70
2019-03-25T12:54:40.233Z,15.80
2019-03-25T12:57:06.444Z,15.80
2019-03-25T12:59:40.859Z,15.80
2019-03-25T13:01:58.973Z,15.80
2019-03-25T13:04:25.194Z,15.70
2019-03-25T13:06:51.428Z,15.70
2019-03-25T13:09:17.654Z,15.80
2019-03-25T13:11:43.896Z,15.80
2019-03-25T13:14:10.136Z,15.80
2019-03-25T13:16:36.344Z,15.70
2019-03-25T13:19:02.532Z,15.60
2019-03-25T13:21:30.259Z,15.50
2019-03-25T13:23:56.472Z,15.50
2019-03-25T13:26:22.668Z,15.50
2019-03-25T13:28:48.871Z,15.60
2019-03-25T13:31:15.071Z,15.60
2019-03-25T13:33:41.382Z,15.60
2019-03-25T13:36:09.222Z,15.60
2019-03-25T13:38:35.423Z,15.60
2019-03-25T13:41:01.604Z,15.70
2019-03-25T13:43:27.811Z,15.80
2019-03-25T13:46:04.796Z,15.80
2019-03-25T13:48:20.381Z,15.80
2019-03-25T13:50:46.609Z,15.80
2019-03-25T13:53:12.848Z,15.80
2019-03-25T13:55:39.051Z,15.80
2019-03-25T13:58:05.291Z,15.70
2019-03-25T14:00:31.494Z,15.70
2019-03-25T14:02:57.707Z,15.70
2019-03-25T14:05:23.897Z,15.70
2019-03-25T14:07:50.092Z,15.70
2019-03-25T14:10:17.071Z,15.80
2019-03-25T14:12:43.311Z,15.70
2019-03-25T14:15:09.679Z,15.70
2019-03-25T14:17:35.856Z,15.70
2019-03-25T14:20:02.048Z,15.70
2019-03-25T14:22:29.010Z,15.70
2019-03-25T14:24:55.192Z,15.70
2019-03-25T14:27:21.374Z,15.70
2019-03-25T14:29:47.592Z,15.70
2019-03-25T14:32:14.571Z,15.60
2019-03-25T14:34:45.027Z,15.60
2019-03-25T14:37:07.000Z,15.60
2019-03-25T14:39:33.220Z,15.70
2019-03-25T14:41:59.404Z,15.60
2019-03-25T14:44:26.400Z,15.60
2019-03-25T14:46:52.607Z,15.60
2019-03-25T14:49:18.865Z,15.70
2019-03-25T14:51:45.200Z,15.70
2019-03-25T14:54:11.619Z,15.70
2019-03-25T14:56:37.849Z,15.80
2019-03-25T14:59:04.280Z,15.80
2019-03-25T15:01:30.714Z,15.90
2019-03-25T15:03:56.958Z,15.90
2019-03-25T15:06:23.381Z,15.90
2019-03-25T15:08:49.601Z,16.00
2019-03-25T15:11:15.820Z,16.00
2019-03-25T15:13:42.027Z,16.10
2019-03-25T15:16:08.219Z,16.20
2019-03-25T15:18:34.438Z,16.20
2019-03-25T15:21:00.694Z,16.30
2019-03-25T15:23:26.872Z,16.30
2019-03-25T15:25:53.059Z,16.30
2019-03-25T15:28:19.637Z,16.30
2019-03-25T15:30:45.890Z,16.30
2019-03-25T15:33:12.118Z,16.40
2019-03-25T15:35:38.323Z,16.40
2019-03-25T15:38:04.543Z,16.40
2019-03-25T15:40:30.887Z,16.40
2019-03-25T15:42:57.858Z,16.40
2019-03-25T15:45:24.041Z,16.40
2019-03-25T15:47:50.281Z,16.40
2019-03-25T15:50:16.526Z,16.40
2019-03-25T15:52:42.738Z,16.40
2019-03-25T15:55:08.966Z,16.50
2019-03-25T15:57:35.182Z,16.50
2019-03-25T16:00:01.629Z,16.40
2019-03-25T16:02:27.857Z,16.50
2019-03-25T16:04:54.068Z,16.50
2019-03-25T16:07:20.256Z,16.50
2019-03-25T16:09:46.499Z,16.40
2019-03-25T16:12:12.699Z,16.50
2019-03-25T16:14:38.943Z,16.50
2019-03-25T16:17:05.197Z,16.50
2019-03-25T16:19:32.167Z,16.50
2019-03-25T16:21:59.149Z,16.40
2019-03-25T16:24:25.346Z,16.40
2019-03-25T16:26:51.616Z,16.40
2019-03-25T16:29:18.135Z,16.40
2019-03-25T16:31:44.241Z,16.40
2019-03-25T16:34:10.482Z,16.40
2019-03-25T16:36:36.683Z,16.40
2019-03-25T16:39:02.877Z,16.50
2019-03-25T16:41:29.080Z,16.50
2019-03-25T16:43:55.342Z,16.50
2019-03-25T16:46:21.551Z,16.50
2019-03-25T16:48:47.748Z,16.50
2019-03-25T16:51:13.957Z,16.50
2019-03-25T16:53:40.947Z,16.40
2019-03-25T16:56:07.160Z,16.40
2019-03-25T16:58:33.379Z,16.40
2019-03-25T17:01:09.471Z,16.40
2019-03-25T17:03:26.026Z,16.50
2019-03-25T17:05:52.342Z,16.50
2019-03-25T17:08:19.506Z,16.50
2019-03-25T17:10:46.142Z,16.50
2019-03-25T17:13:12.381Z,16.50
2019-03-25T17:15:38.657Z,16.60
2019-03-25T17:18:04.876Z,16.50
2019-03-25T17:20:31.260Z,16.60
2019-03-25T17:22:57.692Z,16.50
2019-03-25T17:25:24.087Z,16.50
2019-03-25T17:27:50.318Z,16.50
2019-03-25T17:30:16.556Z,16.50
2019-03-25T17:32:43.637Z,16.50
2019-03-25T17:35:10.029Z,16.50
2019-03-25T17:37:36.480Z,16.50
2019-03-25T17:40:02.880Z,16.40
2019-03-25T17:42:29.137Z,16.40
2019-03-25T17:44:55.554Z,16.50
2019-03-25T17:47:21.815Z,16.50
2019-03-25T17:49:48.219Z,16.50
2019-03-25T17:52:14.473Z,16.50
2019-03-25T17:54:40.874Z,16.50
2019-03-25T17:57:07.115Z,16.50
2019-03-25T17:59:33.556Z,16.60
2019-03-25T18:01:59.983Z,16.60
2019-03-25T18:04:26.448Z,16.60
2019-03-25T18:06:52.848Z,16.60
2019-03-25T18:09:19.285Z,16.60
2019-03-25T18:11:46.564Z,16.60
2019-03-25T18:14:12.799Z,16.60
2019-03-25T18:16:39.205Z,16.60
2019-03-25T18:19:05.627Z,16.60
2019-03-25T18:21:31.907Z,16.60
2019-03-25T18:23:58.538Z,16.60
2019-03-25T18:26:24.908Z,16.60
2019-03-25T18:28:51.359Z,16.70
2019-03-25T18:31:17.824Z,16.60
2019-03-25T18:33:44.471Z,16.60
2019-03-25T18:36:10.866Z,16.70
2019-03-25T18:38:37.089Z,16.70
2019-03-25T18:41:03.557Z,16.70
2019-03-25T18:43:29.952Z,16.60
2019-03-25T18:45:56.233Z,16.60
2019-03-25T18:48:22.621Z,16.60
2019-03-25T18:50:49.093Z,16.60
2019-03-25T18:53:15.516Z,16.70
2019-03-25T18:55:41.935Z,16.60
2019-03-25T18:58:08.356Z,16.60
2019-03-25T19:00:34.578Z,16.60
2019-03-25T19:03:01.074Z,16.60
2019-03-25T19:05:27.462Z,16.60
2019-03-25T19:07:53.884Z,16.50
2019-03-25T19:10:20.109Z,16.50
2019-03-25T19:12:46.583Z,16.60
2019-03-25T19:15:12.978Z,16.60
2019-03-25T19:17:39.404Z,16.60
2019-03-25T19:20:05.905Z,16.60
2019-03-25T19:22:32.265Z,16.60
2019-03-25T19:24:58.500Z,16.60
2019-03-25T19:27:26.229Z,16.60
2019-03-25T19:29:52.644Z,16.70
2019-03-25T19:32:19.054Z,16.70
2019-03-25T19:34:45.513Z,16.70
2019-03-25T19:37:11.921Z,16.70
2019-03-25T19:39:38.350Z,16.70
2019-03-25T19:42:04.776Z,16.70
2019-03-25T19:44:31.201Z,16.70
2019-03-25T19:46:57.661Z,16.60
2019-03-25T19:49:24.129Z,16.60
2019-03-25T19:51:50.500Z,16.60
2019-03-25T19:54:16.762Z,16.60
2019-03-25T19:56:43.194Z,16.60
2019-03-25T19:59:09.613Z,16.60
2019-03-25T20:01:36.056Z,16.60
2019-03-25T20:04:02.462Z,16.70
2019-03-25T20:06:28.909Z,16.70
2019-03-25T20:08:55.562Z,16.70
2019-03-25T20:11:21.956Z,16.60
2019-03-25T20:13:48.226Z,16.60
2019-03-25T20:16:14.640Z,16.60
2019-03-25T20:18:41.124Z,16.60
2019-03-25T20:21:07.488Z,16.60
2019-03-25T20:23:34.165Z,16.60
2019-03-25T20:26:00.539Z,16.60
2019-03-25T20:28:26.806Z,16.60
2019-03-25T20:30:53.221Z,16.60
2019-03-25T20:33:19.708Z,16.60
2019-03-25T20:35:46.332Z,16.60
2019-03-25T20:38:12.737Z,16.60
2019-03-25T20:40:39.194Z,16.70
2019-03-25T20:43:05.848Z,16.70
2019-03-25T20:45:32.214Z,16.70
2019-03-25T20:47:58.490Z,16.70
2019-03-25T20:50:24.887Z,16.70
2019-03-25T20:52:51.124Z,16.70
2019-03-25T20:55:17.366Z,16.70
2019-03-25T20:57:43.591Z,16.80
2019-03-25T21:00:10.031Z,16.70
2019-03-25T21:02:45.049Z,16.80
2019-03-25T21:05:02.717Z,16.80
2019-03-25T21:07:29.347Z,16.80
2019-03-25T21:09:56.625Z,16.80
2019-03-25T21:12:23.078Z,16.80
2019-03-25T21:14:49.669Z,16.80
2019-03-25T21:17:16.088Z,16.80
2019-03-25T21:19:42.531Z,16.80
2019-03-25T21:22:08.968Z,16.80
2019-03-25T21:24:35.371Z,16.80
2019-03-25T21:27:01.596Z,16.70
2019-03-25T21:29:27.848Z,16.80
2019-03-25T21:31:54.279Z,16.80
2019-03-25T21:34:20.755Z,16.80
2019-03-25T21:36:47.137Z,16.80
2019-03-25T21:39:14.175Z,16.70
2019-03-25T21:41:42.391Z,16.70
2019-03-25T21:44:08.674Z,16.70
2019-03-25T21:46:34.981Z,16.70
2019-03-25T21:49:01.352Z,16.70
2019-03-25T21:51:27.798Z,16.70
2019-03-25T21:53:54.381Z,16.70
2019-03-25T21:56:20.782Z,16.70
2019-03-25T21:58:47.064Z,16.70
2019-03-25T22:01:14.994Z,16.60
2019-03-25T22:03:41.611Z,16.60
2019-03-25T22:06:08.007Z,16.70
2019-03-25T22:08:34.991Z,16.70
2019-03-25T22:11:01.280Z,16.70
2019-03-25T22:13:27.527Z,16.70
2019-03-25T22:15:53.771Z,16.70
2019-03-25T22:18:20.184Z,16.70
2019-03-25T22:20:46.641Z,16.70
2019-03-25T22:23:13.020Z,16.70
2019-03-25T22:25:39.286Z,16.70
2019-03-25T22:28:05.495Z,16.70
2019-03-25T22:30:31.720Z,16.70
2019-03-25T22:32:57.972Z,16.70
2019-03-25T22:35:24.426Z,16.70
2019-03-25T22:37:50.856Z,16.60
2019-03-25T22:40:17.261Z,16.60
2019-03-25T22:42:43.517Z,16.60
2019-03-25T22:45:10.156Z,16.70
2019-03-25T22:47:36.607Z,16.70
2019-03-25T22:50:02.990Z,16.70
2019-03-25T22:52:29.252Z,16.60
2019-03-25T22:54:55.654Z,16.60
2019-03-25T22:57:22.086Z,16.60
2019-03-25T22:59:48.310Z,16.60
2019-03-25T23:02:15.366Z,16.50
2019-03-25T23:04:42.430Z,16.50
2019-03-25T23:07:08.811Z,16.50
2019-03-25T23:09:35.307Z,16.50
2019-03-25T23:12:01.741Z,16.50
2019-03-25T23:14:28.163Z,16.40
2019-03-25T23:16:54.593Z,16.40
2019-03-25T23:19:21.039Z,16.40
2019-03-25T23:21:47.437Z,16.40
2019-03-25T23:24:16.775Z,16.40
2019-03-25T23:26:43.208Z,16.40
2019-03-25T23:29:09.640Z,16.40
2019-03-25T23:31:36.044Z,16.40
2019-03-25T23:34:03.120Z,16.40
2019-03-25T23:36:29.567Z,16.30
2019-03-25T23:38:55.931Z,16.30
2019-03-25T23:41:22.179Z,16.40
2019-03-25T23:43:48.448Z,16.40
2019-03-25T23:46:14.882Z,16.30
2019-03-25T23:48:41.515Z,16.30
2019-03-25T23:51:07.910Z,16.20
2019-03-25T23:53:35.760Z,16.30
2019-03-25T23:56:02.044Z,16.30
2019-03-25T23:58:28.432Z,16.30
